Time;durP1;ratioP1;P1;durP2;ratioP2;P2;SDS_P1;SDS_P2;PMS_P1;PMS_P2;Temp;Humidity;BMP_temperature;BMP_pressure;BME280_temperature;BME280_humidity;BME280_pressure;Samples;Min_cycle;Max_cycle;Signal;HPM_P1;HPM_P2
2022/06/05 00:00:17;;;;;;;6.60;6.00;;;;;;;;;;5004365;28;20215;-72
2022/06/05 00:02:48;;;;;;;6.43;5.93;;;;;;;;;;4990782;28;20195;-72
2022/06/05 00:05:19;;;;;;;6.73;6.20;;;;;;;;;;4989309;28;20177;-72
2022/06/05 00:08:02;;;;;;;6.43;5.93;;;;;;;;;;5015760;28;20214;-72
2022/06/05 00:10:32;;;;;;;6.67;6.07;;;;;;;;;;4995450;28;20226;-72
2022/06/05 00:13:07;;;;;;;8.30;6.03;;;;;;;;;;4997635;28;20176;-72
2022/06/05 00:15:34;;;;;;;6.23;5.73;;;;;;;;;;4990662;28;20733;-72
2022/06/05 00:18:01;;;;;;;6.30;5.70;;;;;;;;;;4995007;28;20346;-72
2022/06/05 00:20:27;;;;;;;6.50;6.00;;;;;;;;;;4991120;28;20799;-73
2022/06/05 00:22:54;;;;;;;6.17;5.67;;;;;;;;;;5012147;28;20262;-72
2022/06/05 00:25:21;;;;;;;6.20;5.70;;;;;;;;;;4992873;28;20184;-72
2022/06/05 00:27:51;;;;;;;6.10;5.60;;;;;;;;;;4998810;28;20184;-72
2022/06/05 00:30:44;;;;;;;6.00;5.50;;;;;;;;;;4996094;28;20211;-72
2022/06/05 00:33:12;;;;;;;6.30;5.80;;;;;;;;;;5009211;28;20195;-72
2022/06/05 00:35:51;;;;;;;6.20;5.70;;;;;;;;;;5018099;28;20195;-72
2022/06/05 00:38:23;;;;;;;6.50;5.97;;;;;;;;;;4994100;28;20214;-72
2022/06/05 00:40:58;;;;;;;6.03;5.43;;;;;;;;;;4998379;28;20547;-72
2022/06/05 00:43:25;;;;;;;7.67;6.20;;;;;;;;;;4995547;28;20192;-72
2022/06/05 00:45:52;;;;;;;5.43;5.03;;;;;;;;;;4996985;28;20183;-72
2022/06/05 00:48:19;;;;;;;5.53;5.03;;;;;;;;;;5011907;28;20696;-72
2022/06/05 00:50:47;;;;;;;5.27;4.83;;;;;;;;;;5005713;28;20225;-72
2022/06/05 00:53:14;;;;;;;5.50;5.10;;;;;;;;;;4994404;28;20187;-72
2022/06/05 00:55:42;;;;;;;6.20;5.70;;;;;;;;;;4994739;28;20656;-72
2022/06/05 00:58:08;;;;;;;5.57;5.07;;;;;;;;;;5001462;28;20222;-72
2022/06/05 01:00:39;;;;;;;6.90;5.40;;;;;;;;;;5003999;28;20211;-72
2022/06/05 01:03:07;;;;;;;5.90;5.40;;;;;;;;;;5004042;28;20187;-72
2022/06/05 01:05:34;;;;;;;5.70;5.30;;;;;;;;;;4997691;28;20215;-72
2022/06/05 01:08:00;;;;;;;6.20;5.70;;;;;;;;;;4995348;28;20192;-72
2022/06/05 01:10:28;;;;;;;5.37;4.97;;;;;;;;;;5001503;28;20250;-72
2022/06/05 01:13:02;;;;;;;5.97;5.50;;;;;;;;;;5018345;28;21034;-72
2022/06/05 01:15:34;;;;;;;5.90;5.50;;;;;;;;;;5007676;28;20183;-72
2022/06/05 01:18:10;;;;;;;5.87;5.47;;;;;;;;;;5002079;28;20238;-72
2022/06/05 01:20:46;;;;;;;6.20;5.73;;;;;;;;;;5001960;28;20204;-72
2022/06/05 01:23:24;;;;;;;6.33;5.73;;;;;;;;;;4994608;28;20178;-72
2022/06/05 01:25:50;;;;;;;6.17;5.70;;;;;;;;;;4996129;28;20208;-72
2022/06/05 01:28:21;;;;;;;6.20;5.60;;;;;;;;;;4996550;28;20234;-72
2022/06/05 01:30:56;;;;;;;6.50;5.90;;;;;;;;;;5004441;28;20207;-73
2022/06/05 01:33:24;;;;;;;6.57;6.07;;;;;;;;;;4987229;28;20188;-72
2022/06/05 01:36:00;;;;;;;6.53;6.03;;;;;;;;;;5001145;28;20207;-72
2022/06/05 01:38:38;;;;;;;7.37;6.67;;;;;;;;;;4995799;28;20184;-72
2022/06/05 01:41:09;;;;;;;9.43;6.93;;;;;;;;;;4999856;28;20218;-72
2022/06/05 01:43:37;;;;;;;7.37;6.77;;;;;;;;;;5001004;28;20176;-72
2022/06/05 01:46:16;;;;;;;7.93;7.27;;;;;;;;;;5013487;28;20190;-72
2022/06/05 01:48:46;;;;;;;7.77;7.13;;;;;;;;;;5019110;28;20210;-72
2022/06/05 01:51:28;;;;;;;8.07;7.23;;;;;;;;;;5004086;28;20649;-72
2022/06/05 01:53:55;;;;;;;8.57;7.83;;;;;;;;;;5013850;28;20179;-72
2022/06/05 01:56:22;;;;;;;7.97;7.20;;;;;;;;;;4996860;28;20218;-72
2022/06/05 01:58:54;;;;;;;8.27;7.60;;;;;;;;;;5001007;28;20270;-72
2022/06/05 02:01:23;;;;;;;8.00;7.30;;;;;;;;;;4999750;28;20822;-72
2022/06/05 02:03:56;;;;;;;7.80;7.10;;;;;;;;;;4990638;28;20208;-72
2022/06/05 02:06:26;;;;;;;8.53;7.83;;;;;;;;;;4994729;28;20556;-72
2022/06/05 02:08:55;;;;;;;7.70;7.00;;;;;;;;;;5000728;28;20198;-72
2022/06/05 02:11:25;;;;;;;7.93;7.33;;;;;;;;;;5001193;28;20191;-72
2022/06/05 02:13:54;;;;;;;7.80;7.13;;;;;;;;;;4998506;28;20214;-72
2022/06/05 02:16:21;;;;;;;7.60;7.00;;;;;;;;;;5016552;28;20208;-72
2022/06/05 02:18:47;;;;;;;7.90;7.20;;;;;;;;;;5001862;28;20224;-72
2022/06/05 02:21:14;;;;;;;7.80;7.20;;;;;;;;;;5003979;28;20270;-72
2022/06/05 02:23:41;;;;;;;7.90;7.20;;;;;;;;;;4997395;28;20208;-72
2022/06/05 02:26:08;;;;;;;8.13;7.43;;;;;;;;;;5005187;28;20266;-72
2022/06/05 02:28:35;;;;;;;8.07;7.37;;;;;;;;;;5016032;28;20180;-72
2022/06/05 02:31:09;;;;;;;7.90;7.30;;;;;;;;;;4994782;28;20529;-73
2022/06/05 02:33:38;;;;;;;8.80;8.10;;;;;;;;;;4988380;28;20664;-72
2022/06/05 02:36:09;;;;;;;7.90;7.30;;;;;;;;;;5004671;28;20192;-73
2022/06/05 02:38:38;;;;;;;8.90;8.20;;;;;;;;;;5000547;28;20238;-73
2022/06/05 02:41:08;;;;;;;8.07;7.47;;;;;;;;;;4999653;28;20253;-73
2022/06/05 02:43:43;;;;;;;8.73;7.93;;;;;;;;;;5001009;28;20188;-73
2022/06/05 02:46:26;;;;;;;8.80;8.10;;;;;;;;;;5000386;28;20216;-72
2022/06/05 02:49:02;;;;;;;9.30;8.40;;;;;;;;;;4995567;28;20278;-73
2022/06/05 02:51:34;;;;;;;9.33;8.43;;;;;;;;;;4997612;28;20176;-73
2022/06/05 02:54:00;;;;;;;9.13;8.30;;;;;;;;;;4987060;28;20180;-73
2022/06/05 02:56:28;;;;;;;9.63;8.73;;;;;;;;;;5018907;28;20216;-73
2022/06/05 02:58:56;;;;;;;9.37;8.50;;;;;;;;;;5003254;28;20250;-73
2022/06/05 03:04:07;;;;;;;8.87;8.13;;;;;;;;;;4997859;28;20187;-73
2022/06/05 03:06:34;;;;;;;9.60;8.70;;;;;;;;;;4995891;28;20238;-73
2022/06/05 03:09:00;;;;;;;9.33;8.57;;;;;;;;;;4999735;28;20204;-73
2022/06/05 03:11:26;;;;;;;9.70;8.83;;;;;;;;;;4988667;28;20187;-73
2022/06/05 03:13:53;;;;;;;9.30;8.50;;;;;;;;;;4992483;28;20242;-73
2022/06/05 03:16:19;;;;;;;8.87;7.97;;;;;;;;;;5004485;28;20697;-73
2022/06/05 03:18:46;;;;;;;8.97;8.20;;;;;;;;;;5003441;28;20191;-73
2022/06/05 03:21:12;;;;;;;8.77;8.03;;;;;;;;;;4998362;28;20844;-73
2022/06/05 03:23:38;;;;;;;8.57;7.90;;;;;;;;;;4992637;28;20209;-73
2022/06/05 03:26:04;;;;;;;9.33;8.47;;;;;;;;;;5000977;28;20187;-73
2022/06/05 03:28:31;;;;;;;8.90;8.20;;;;;;;;;;5010092;28;20270;-73
2022/06/05 03:30:57;;;;;;;8.47;7.77;;;;;;;;;;4990111;28;20199;-73
2022/06/05 03:33:23;;;;;;;8.30;7.53;;;;;;;;;;4992872;28;20266;-73
2022/06/05 03:35:49;;;;;;;8.43;7.63;;;;;;;;;;4995991;28;20207;-73
2022/06/05 03:38:16;;;;;;;7.40;6.90;;;;;;;;;;4993934;28;20234;-72
2022/06/05 03:40:43;;;;;;;7.77;7.07;;;;;;;;;;5002067;28;20214;-72
2022/06/05 03:43:10;;;;;;;8.10;6.87;;;;;;;;;;4993621;28;20183;-72
2022/06/05 03:45:36;;;;;;;7.50;6.80;;;;;;;;;;5019722;28;20187;-73
2022/06/05 03:48:03;;;;;;;7.10;6.50;;;;;;;;;;5005542;28;20184;-73
2022/06/05 03:50:29;;;;;;;7.90;7.20;;;;;;;;;;4990378;28;20207;-73
2022/06/05 03:52:55;;;;;;;7.17;6.67;;;;;;;;;;4994238;28;20719;-73
2022/06/05 03:55:22;;;;;;;6.53;6.00;;;;;;;;;;4999065;28;20191;-73
2022/06/05 03:57:49;;;;;;;7.50;6.83;;;;;;;;;;5002076;28;20206;-73
2022/06/05 04:00:16;;;;;;;7.53;6.93;;;;;;;;;;4994510;28;20703;-73
2022/06/05 04:02:43;;;;;;;6.53;5.87;;;;;;;;;;4995121;28;20291;-73
2022/06/05 04:05:10;;;;;;;7.50;7.00;;;;;;;;;;4995055;28;20176;-73
2022/06/05 04:07:36;;;;;;;7.27;6.50;;;;;;;;;;4995017;28;20192;-73
2022/06/05 04:10:02;;;;;;;7.50;6.33;;;;;;;;;;4995445;28;20199;-73
2022/06/05 04:12:28;;;;;;;7.13;6.57;;;;;;;;;;4993897;28;20180;-73
2022/06/05 04:14:54;;;;;;;7.37;6.80;;;;;;;;;;5011471;28;20187;-73
2022/06/05 04:17:20;;;;;;;7.30;6.70;;;;;;;;;;4994225;28;20211;-73
2022/06/05 04:19:47;;;;;;;7.60;6.93;;;;;;;;;;4997069;28;20291;-72
2022/06/05 04:22:13;;;;;;;7.97;7.17;;;;;;;;;;4995437;28;20600;-72
2022/06/05 04:24:39;;;;;;;8.50;7.70;;;;;;;;;;5000724;28;20593;-72
2022/06/05 04:27:06;;;;;;;8.40;7.60;;;;;;;;;;5000928;28;20179;-72
2022/06/05 04:29:33;;;;;;;8.80;8.10;;;;;;;;;;5001292;28;20683;-72
2022/06/05 04:31:59;;;;;;;9.50;8.73;;;;;;;;;;4990037;28;20188;-72
2022/06/05 04:34:25;;;;;;;10.10;9.20;;;;;;;;;;4997811;28;20206;-72
2022/06/05 04:36:52;;;;;;;10.33;9.50;;;;;;;;;;4997038;28;20219;-72
2022/06/05 04:39:18;;;;;;;10.07;9.17;;;;;;;;;;5012165;28;20218;-72
2022/06/05 04:41:45;;;;;;;10.17;9.17;;;;;;;;;;4994844;28;20198;-72
2022/06/05 04:44:13;;;;;;;10.00;9.10;;;;;;;;;;5002007;28;20278;-73
2022/06/05 04:46:39;;;;;;;10.70;9.37;;;;;;;;;;4998203;28;20195;-72
2022/06/05 04:49:08;;;;;;;10.40;9.50;;;;;;;;;;4989351;28;20326;-73
2022/06/05 04:51:36;;;;;;;11.50;10.33;;;;;;;;;;5012376;28;20850;-72
2022/06/05 04:54:03;;;;;;;10.70;9.70;;;;;;;;;;5003600;28;20787;-72
2022/06/05 04:56:29;;;;;;;11.00;10.10;;;;;;;;;;4991407;28;20215;-72
2022/06/05 04:58:56;;;;;;;11.13;10.20;;;;;;;;;;5006330;28;20187;-73
2022/06/05 05:01:25;;;;;;;10.53;9.63;;;;;;;;;;4988970;28;20180;-72
2022/06/05 05:03:52;;;;;;;11.17;10.20;;;;;;;;;;5010099;28;20331;-72
2022/06/05 05:06:18;;;;;;;11.90;10.90;;;;;;;;;;4994976;28;20188;-72
2022/06/05 05:08:44;;;;;;;12.10;11.00;;;;;;;;;;4993251;28;20191;-72
2022/06/05 05:11:11;;;;;;;12.27;11.27;;;;;;;;;;4990684;28;20194;-72
2022/06/05 05:13:37;;;;;;;11.73;10.83;;;;;;;;;;4992377;28;20184;-72
2022/06/05 05:16:03;;;;;;;12.20;11.20;;;;;;;;;;4996184;28;20186;-72
2022/06/05 05:18:30;;;;;;;10.83;10.03;;;;;;;;;;4994682;28;20278;-72
2022/06/05 05:21:03;;;;;;;12.80;11.50;;;;;;;;;;4993016;28;20211;-72
2022/06/05 05:23:29;;;;;;;11.40;10.47;;;;;;;;;;5000286;28;20195;-72
2022/06/05 05:25:56;;;;;;;12.47;11.37;;;;;;;;;;5005976;28;20186;-72
2022/06/05 05:28:22;;;;;;;15.20;13.80;;;;;;;;;;5006191;28;20195;-72
2022/06/05 05:30:48;;;;;;;15.90;14.60;;;;;;;;;;5011762;28;20208;-72
2022/06/05 05:33:14;;;;;;;15.30;13.83;;;;;;;;;;4996796;28;20199;-72
2022/06/05 05:35:41;;;;;;;13.37;12.23;;;;;;;;;;4994886;28;20196;-73
2022/06/05 05:38:07;;;;;;;13.80;12.60;;;;;;;;;;4998124;28;20208;-72
2022/06/05 05:43:18;;;;;;;12.47;11.37;;;;;;;;;;4993676;28;20242;-73
2022/06/05 05:45:45;;;;;;;12.83;11.83;;;;;;;;;;5007153;28;20192;-73
2022/06/05 05:48:11;;;;;;;12.57;11.57;;;;;;;;;;5007115;28;20183;-73
2022/06/05 05:50:37;;;;;;;12.53;11.43;;;;;;;;;;5014059;28;20310;-73
2022/06/05 05:53:03;;;;;;;10.00;9.20;;;;;;;;;;5002099;28;20198;-73
2022/06/05 05:55:30;;;;;;;10.00;9.10;;;;;;;;;;4999511;28;20283;-73
2022/06/05 05:57:56;;;;;;;9.37;8.63;;;;;;;;;;5004389;28;20214;-73
2022/06/05 06:00:22;;;;;;;9.83;9.03;;;;;;;;;;5001561;28;20207;-73
2022/06/05 06:02:48;;;;;;;8.97;8.10;;;;;;;;;;4992626;28;20675;-73
2022/06/05 06:05:16;;;;;;;8.50;7.80;;;;;;;;;;4978411;28;20199;-72
2022/06/05 06:07:42;;;;;;;8.57;7.97;;;;;;;;;;4999108;28;20206;-72
2022/06/05 06:10:09;;;;;;;8.80;8.00;;;;;;;;;;4997915;28;20287;-73
2022/06/05 06:12:36;;;;;;;10.33;9.47;;;;;;;;;;5010788;28;20220;-73
2022/06/05 06:15:03;;;;;;;9.07;8.20;;;;;;;;;;5006112;28;20225;-73
2022/06/05 06:17:29;;;;;;;8.93;8.13;;;;;;;;;;5003874;28;20227;-73
2022/06/05 06:19:55;;;;;;;9.50;8.73;;;;;;;;;;4995103;28;20211;-76
2022/06/05 06:22:21;;;;;;;9.40;8.60;;;;;;;;;;5005528;28;20180;-75
2022/06/05 06:24:48;;;;;;;8.73;8.03;;;;;;;;;;5005275;28;20200;-76
2022/06/05 06:27:14;;;;;;;9.23;8.53;;;;;;;;;;5024832;28;20191;-76
2022/06/05 06:29:40;;;;;;;9.40;8.60;;;;;;;;;;4997094;28;20215;-78
2022/06/05 06:32:07;;;;;;;9.43;8.50;;;;;;;;;;5003725;28;20176;-76
2022/06/05 06:34:33;;;;;;;8.70;7.90;;;;;;;;;;5014647;28;20191;-76
2022/06/05 06:36:59;;;;;;;9.17;8.47;;;;;;;;;;4994296;28;20215;-75
2022/06/05 06:39:26;;;;;;;8.97;8.37;;;;;;;;;;4994115;28;20302;-77
2022/06/05 06:41:52;;;;;;;8.43;7.63;;;;;;;;;;4992164;28;20195;-76
2022/06/05 06:44:18;;;;;;;8.17;7.47;;;;;;;;;;5003819;28;20330;-75
2022/06/05 06:46:45;;;;;;;7.83;7.33;;;;;;;;;;4998396;28;20306;-76
2022/06/05 06:49:11;;;;;;;8.20;7.40;;;;;;;;;;4988896;28;20199;-76
2022/06/05 06:51:38;;;;;;;7.93;7.33;;;;;;;;;;4983029;28;20184;-75
2022/06/05 06:54:04;;;;;;;7.43;6.73;;;;;;;;;;4985793;28;20208;-75
2022/06/05 06:56:31;;;;;;;8.50;7.77;;;;;;;;;;4978546;28;20208;-75
2022/06/05 06:58:59;;;;;;;8.17;7.57;;;;;;;;;;4984213;28;20828;-77
2022/06/05 07:01:25;;;;;;;7.87;7.27;;;;;;;;;;4993359;28;20568;-78
2022/06/05 07:03:51;;;;;;;9.00;8.20;;;;;;;;;;4979984;28;20637;-77
2022/06/05 07:06:18;;;;;;;8.83;8.07;;;;;;;;;;4977907;28;20243;-76
2022/06/05 07:08:44;;;;;;;8.70;8.00;;;;;;;;;;4995638;28;20239;-76
2022/06/05 07:11:12;;;;;;;8.40;7.80;;;;;;;;;;4978814;28;20192;-77
2022/06/05 07:13:38;;;;;;;8.53;7.67;;;;;;;;;;4993908;28;20192;-76
2022/06/05 07:16:08;;;;;;;8.03;7.33;;;;;;;;;;4979643;28;20176;-76
2022/06/05 07:18:36;;;;;;;8.20;7.60;;;;;;;;;;4992902;28;20291;-76
2022/06/05 07:21:15;;;;;;;7.80;7.20;;;;;;;;;;4979775;28;20204;-76
2022/06/05 07:23:41;;;;;;;7.63;7.03;;;;;;;;;;4987414;28;20179;-76
2022/06/05 07:26:09;;;;;;;7.37;6.87;;;;;;;;;;4986469;28;20234;-77
2022/06/05 07:28:35;;;;;;;6.77;6.27;;;;;;;;;;5006065;28;20662;-75
2022/06/05 07:31:02;;;;;;;6.67;6.17;;;;;;;;;;5003603;28;20245;-76
2022/06/05 07:33:30;;;;;;;7.10;6.60;;;;;;;;;;4999248;28;20182;-76
2022/06/05 07:36:00;;;;;;;7.40;6.80;;;;;;;;;;4997777;28;20546;-77
2022/06/05 07:38:27;;;;;;;7.10;6.60;;;;;;;;;;4996002;28;20199;-75
2022/06/05 07:40:53;;;;;;;6.53;6.03;;;;;;;;;;5011084;28;20230;-76
2022/06/05 07:43:21;;;;;;;7.07;6.37;;;;;;;;;;4999479;28;20560;-76
2022/06/05 07:45:48;;;;;;;6.70;6.13;;;;;;;;;;5022020;28;20214;-76
2022/06/05 07:48:17;;;;;;;6.50;5.90;;;;;;;;;;5006262;28;20179;-76
2022/06/05 07:56:13;;;;;;;6.60;6.10;;;;;;;;;;4990948;28;20187;-77
2022/06/05 07:58:39;;;;;;;6.20;5.70;;;;;;;;;;5000353;28;20183;-77
2022/06/05 08:01:07;;;;;;;6.53;5.97;;;;;;;;;;5009637;28;20176;-76
2022/06/05 08:03:34;;;;;;;6.53;6.03;;;;;;;;;;4993024;28;20186;-76
2022/06/05 08:06:00;;;;;;;8.53;6.67;;;;;;;;;;5016430;28;20261;-76
2022/06/05 08:08:27;;;;;;;7.50;6.80;;;;;;;;;;4991836;28;20184;-76
2022/06/05 08:10:53;;;;;;;11.53;6.63;;;;;;;;;;4991213;28;20208;-76
2022/06/05 08:13:19;;;;;;;6.80;6.30;;;;;;;;;;4990240;28;20184;-76
2022/06/05 08:15:46;;;;;;;6.33;5.83;;;;;;;;;;4995678;28;20188;-76
2022/06/05 08:18:15;;;;;;;6.37;5.87;;;;;;;;;;5000576;28;20246;-76
2022/06/05 08:20:41;;;;;;;7.00;6.40;;;;;;;;;;4993531;28;20202;-75
2022/06/05 08:23:07;;;;;;;6.20;5.70;;;;;;;;;;4999030;28;20184;-76
2022/06/05 08:25:33;;;;;;;6.30;5.70;;;;;;;;;;4996336;28;20183;-76
2022/06/05 08:28:00;;;;;;;6.27;5.77;;;;;;;;;;5001069;28;20989;-78
2022/06/05 08:30:27;;;;;;;6.33;5.83;;;;;;;;;;4988701;28;20195;-76
2022/06/05 08:32:53;;;;;;;6.50;6.00;;;;;;;;;;5002091;28;20241;-77
2022/06/05 08:35:19;;;;;;;6.97;6.37;;;;;;;;;;5005213;28;20206;-75
2022/06/05 08:43:45;;;;;;;6.37;5.87;;;;;;;;;;4988644;28;20187;-76
2022/06/05 08:46:12;;;;;;;7.37;6.00;;;;;;;;;;4981466;28;20186;-76
2022/06/05 08:48:40;;;;;;;5.80;5.30;;;;;;;;;;5010183;28;20185;-75
2022/06/05 08:51:23;;;;;;;6.57;5.97;;;;;;;;;;4991289;28;20179;-75
2022/06/05 08:54:03;;;;;;;6.10;5.23;;;;;;;;;;4979217;28;20565;-78
2022/06/05 08:56:36;;;;;;;6.03;5.53;;;;;;;;;;4994945;28;20244;-76
2022/06/05 08:59:06;;;;;;;6.10;5.60;;;;;;;;;;4995156;28;20204;-76
2022/06/05 09:01:46;;;;;;;5.50;5.00;;;;;;;;;;4992562;28;20544;-76
2022/06/05 09:04:18;;;;;;;5.30;4.90;;;;;;;;;;5000473;28;20884;-76
2022/06/05 09:06:46;;;;;;;5.30;4.90;;;;;;;;;;5004868;28;20605;-76
2022/06/05 09:09:24;;;;;;;5.17;4.77;;;;;;;;;;4986914;28;20211;-76
2022/06/05 09:12:22;;;;;;;5.03;4.63;;;;;;;;;;4995263;28;20274;-76
2022/06/05 09:14:51;;;;;;;5.47;4.87;;;;;;;;;;4972541;28;20192;-77
2022/06/05 09:17:19;;;;;;;4.93;4.47;;;;;;;;;;4992242;28;20216;-75
2022/06/05 09:19:46;;;;;;;5.97;5.47;;;;;;;;;;4982225;28;20208;-76
2022/06/05 09:22:18;;;;;;;9.33;8.40;;;;;;;;;;4988387;28;20180;-76
2022/06/05 09:25:00;;;;;;;9.60;8.80;;;;;;;;;;4980641;28;20216;-76
2022/06/05 09:27:40;;;;;;;9.50;8.60;;;;;;;;;;4985990;28;20204;-76
2022/06/05 09:30:22;;;;;;;10.17;9.20;;;;;;;;;;4983098;28;20204;-76
2022/06/05 09:33:09;;;;;;;9.50;8.70;;;;;;;;;;4996187;28;20204;-76
2022/06/05 09:35:38;;;;;;;10.60;9.63;;;;;;;;;;4994524;28;20184;-76
2022/06/05 09:38:22;;;;;;;10.70;9.83;;;;;;;;;;5002718;28;20674;-78
2022/06/05 09:40:53;;;;;;;10.93;10.03;;;;;;;;;;5008032;28;20219;-75
2022/06/05 09:43:39;;;;;;;11.63;10.63;;;;;;;;;;5012070;28;20187;-76
2022/06/05 09:46:28;;;;;;;10.90;10.00;;;;;;;;;;5003878;28;20544;-75
2022/06/05 09:48:54;;;;;;;11.20;10.20;;;;;;;;;;4994391;28;20859;-76
2022/06/05 09:51:21;;;;;;;10.20;9.40;;;;;;;;;;4995997;28;20674;-78
2022/06/05 09:54:13;;;;;;;10.77;9.77;;;;;;;;;;5001694;28;20215;-76
2022/06/05 09:58:24;;;;;;;10.60;9.73;;;;;;;;;;4969236;28;20231;-76
2022/06/05 09:59:30;;;;;;;10.30;9.50;;;;;;;;;;4987913;28;20204;-77
2022/06/05 10:01:59;;;;;;;11.10;10.23;;;;;;;;;;4988964;28;20181;-76
2022/06/05 10:04:29;;;;;;;11.83;10.93;;;;;;;;;;4997241;28;20286;-78
2022/06/05 10:06:57;;;;;;;10.33;9.47;;;;;;;;;;4989204;28;20397;-76
2022/06/05 10:09:26;;;;;;;10.17;9.27;;;;;;;;;;4982716;28;20205;-76
2022/06/05 10:11:58;;;;;;;11.37;10.17;;;;;;;;;;4985771;28;20195;-76
2022/06/05 10:14:24;;;;;;;11.00;10.00;;;;;;;;;;4992842;28;20593;-76
2022/06/05 21:38:39;;;;;;;3.50;1.80;;;;;;;;;;4988814;28;20224;-78
2022/06/05 23:06:33;;;;;;;2.60;2.40;;;;;;;;;;4959370;28;20213;-78
